sensor_id;sensor_type;location;lat;lon;timestamp;temperature;humidity
30053;DHT22;17074;52.478;13.534;2022-07-25T00:00:17;19.10;99.90
30053;DHT22;17074;52.478;13.534;2022-07-25T00:02:43;19.10;99.90
30053;DHT22;17074;52.478;13.534;2022-07-25T00:05:08;19.00;99.90
30053;DHT22;17074;52.478;13.534;2022-07-25T00:07:34;19.00;99.90
30053;DHT22;17074;52.478;13.534;2022-07-25T00:09:59;18.90;99.90
30053;DHT22;17074;52.478;13.534;2022-07-25T00:12:25;18.90;99.90
30053;DHT22;17074;52.478;13.534;2022-07-25T00:14:51;18.80;99.90
30053;DHT22;17074;52.478;13.534;2022-07-25T00:17:16;18.70;99.90
30053;DHT22;17074;52.478;13.534;2022-07-25T00:19:42;18.70;99.90
30053;DHT22;17074;52.478;13.534;2022-07-25T00:22:08;18.70;99.90
30053;DHT22;17074;52.478;13.534;2022-07-25T00:24:33;18.70;99.90
30053;DHT22;17074;52.478;13.534;2022-07-25T00:26:59;18.60;99.90
30053;DHT22;17074;52.478;13.534;2022-07-25T00:29:25;18.60;99.90
30053;DHT22;17074;52.478;13.534;2022-07-25T00:31:51;18.60;99.90
30053;DHT22;17074;52.478;13.534;2022-07-25T00:34:16;18.50;99.90
30053;DHT22;17074;52.478;13.534;2022-07-25T00:36:42;18.50;99.90
30053;DHT22;17074;52.478;13.534;2022-07-25T00:39:08;18.50;99.90
30053;DHT22;17074;52.478;13.534;2022-07-25T00:41:34;18.40;99.90
30053;DHT22;17074;52.478;13.534;2022-07-25T00:44:00;18.40;99.90
30053;DHT22;17074;52.478;13.534;2022-07-25T00:46:25;18.40;99.90
30053;DHT22;17074;52.478;13.534;2022-07-25T00:48:51;18.40;99.90
30053;DHT22;17074;52.478;13.534;2022-07-25T00:51:17;18.40;99.90
30053;DHT22;17074;52.478;13.534;2022-07-25T00:53:43;18.40;99.90
30053;DHT22;17074;52.478;13.534;2022-07-25T00:56:09;18.40;99.90
30053;DHT22;17074;52.478;13.534;2022-07-25T00:58:35;18.40;99.90
30053;DHT22;17074;52.478;13.534;2022-07-25T01:01:01;18.40;99.90
30053;DHT22;17074;52.478;13.534;2022-07-25T01:03:27;18.40;99.90
30053;DHT22;17074;52.478;13.534;2022-07-25T01:05:53;18.40;99.90
30053;DHT22;17074;52.478;13.534;2022-07-25T01:08:19;18.40;99.90
30053;DHT22;17074;52.478;13.534;2022-07-25T01:10:46;18.30;99.90
30053;DHT22;17074;52.478;13.534;2022-07-25T01:13:12;18.20;99.90
30053;DHT22;17074;52.478;13.534;2022-07-25T01:15:38;18.10;99.90
30053;DHT22;17074;52.478;13.534;2022-07-25T01:18:04;18.10;99.90
30053;DHT22;17074;52.478;13.534;2022-07-25T01:20:30;18.10;99.90
30053;DHT22;17074;52.478;13.534;2022-07-25T01:22:57;18.10;99.90
30053;DHT22;17074;52.478;13.534;2022-07-25T01:25:23;18.10;99.90
30053;DHT22;17074;52.478;13.534;2022-07-25T01:27:50;18.20;99.90
30053;DHT22;17074;52.478;13.534;2022-07-25T01:30:16;18.20;99.90
30053;DHT22;17074;52.478;13.534;2022-07-25T01:32:44;18.20;99.90
30053;DHT22;17074;52.478;13.534;2022-07-25T01:35:11;18.20;99.90
30053;DHT22;17074;52.478;13.534;2022-07-25T01:37:37;18.20;99.90
30053;DHT22;17074;52.478;13.534;2022-07-25T01:40:03;18.20;99.90
30053;DHT22;17074;52.478;13.534;2022-07-25T01:42:29;18.20;99.90
30053;DHT22;17074;52.478;13.534;2022-07-25T01:44:55;18.20;99.90
30053;DHT22;17074;52.478;13.534;2022-07-25T01:47:21;18.30;99.90
30053;DHT22;17074;52.478;13.534;2022-07-25T01:49:47;18.20;99.90
30053;DHT22;17074;52.478;13.534;2022-07-25T01:52:13;18.10;99.90
30053;DHT22;17074;52.478;13.534;2022-07-25T01:54:39;17.90;99.90
30053;DHT22;17074;52.478;13.534;2022-07-25T01:57:05;17.80;99.90
30053;DHT22;17074;52.478;13.534;2022-07-25T01:59:31;17.90;99.90
30053;DHT22;17074;52.478;13.534;2022-07-25T02:02:07;17.80;99.90
30053;DHT22;17074;52.478;13.534;2022-07-25T02:04:34;17.80;99.90
30053;DHT22;17074;52.478;13.534;2022-07-25T02:07:00;17.80;99.90
30053;DHT22;17074;52.478;13.534;2022-07-25T02:09:27;17.80;99.90
30053;DHT22;17074;52.478;13.534;2022-07-25T02:11:53;17.80;99.90
30053;DHT22;17074;52.478;13.534;2022-07-25T02:14:18;17.80;99.90
30053;DHT22;17074;52.478;13.534;2022-07-25T02:16:44;17.70;99.90
30053;DHT22;17074;52.478;13.534;2022-07-25T02:19:10;17.70;99.90
30053;DHT22;17074;52.478;13.534;2022-07-25T02:21:35;17.80;99.90
30053;DHT22;17074;52.478;13.534;2022-07-25T02:24:02;17.80;99.90
30053;DHT22;17074;52.478;13.534;2022-07-25T02:26:27;17.90;99.90
30053;DHT22;17074;52.478;13.534;2022-07-25T02:28:53;17.90;99.90
30053;DHT22;17074;52.478;13.534;2022-07-25T02:31:19;17.90;99.90
30053;DHT22;17074;52.478;13.534;2022-07-25T02:37:15;17.80;99.90
30053;DHT22;17074;52.478;13.534;2022-07-25T02:39:42;17.80;99.90
30053;DHT22;17074;52.478;13.534;2022-07-25T02:42:08;17.70;99.90
30053;DHT22;17074;52.478;13.534;2022-07-25T02:44:33;17.60;99.90
30053;DHT22;17074;52.478;13.534;2022-07-25T02:46:59;17.60;99.90
30053;DHT22;17074;52.478;13.534;2022-07-25T02:49:30;17.60;99.90
30053;DHT22;17074;52.478;13.534;2022-07-25T02:51:55;17.60;99.90
30053;DHT22;17074;52.478;13.534;2022-07-25T02:54:22;17.60;99.90
30053;DHT22;17074;52.478;13.534;2022-07-25T02:56:48;17.50;99.90
30053;DHT22;17074;52.478;13.534;2022-07-25T02:59:13;17.60;99.90
30053;DHT22;17074;52.478;13.534;2022-07-25T03:01:39;17.50;99.90
30053;DHT22;17074;52.478;13.534;2022-07-25T03:04:05;17.50;99.90
30053;DHT22;17074;52.478;13.534;2022-07-25T03:06:30;17.60;99.90
30053;DHT22;17074;52.478;13.534;2022-07-25T03:08:56;17.60;99.90
30053;DHT22;17074;52.478;13.534;2022-07-25T03:11:22;17.60;99.90
30053;DHT22;17074;52.478;13.534;2022-07-25T03:13:47;17.70;99.90
30053;DHT22;17074;52.478;13.534;2022-07-25T03:16:13;17.60;99.90
30053;DHT22;17074;52.478;13.534;2022-07-25T03:18:39;17.70;99.90
30053;DHT22;17074;52.478;13.534;2022-07-25T03:21:05;17.70;99.90
30053;DHT22;17074;52.478;13.534;2022-07-25T03:26:52;17.70;99.90
30053;DHT22;17074;52.478;13.534;2022-07-25T03:29:19;17.70;99.90
30053;DHT22;17074;52.478;13.534;2022-07-25T03:31:44;17.70;99.90
30053;DHT22;17074;52.478;13.534;2022-07-25T03:34:10;17.70;99.90
30053;DHT22;17074;52.478;13.534;2022-07-25T03:36:36;17.80;99.90
30053;DHT22;17074;52.478;13.534;2022-07-25T03:39:01;17.80;99.90
30053;DHT22;17074;52.478;13.534;2022-07-25T03:41:27;17.90;99.90
30053;DHT22;17074;52.478;13.534;2022-07-25T03:43:52;18.00;99.90
30053;DHT22;17074;52.478;13.534;2022-07-25T03:46:18;17.90;99.90
30053;DHT22;17074;52.478;13.534;2022-07-25T03:48:44;17.90;99.90
30053;DHT22;17074;52.478;13.534;2022-07-25T03:51:09;17.90;99.90
30053;DHT22;17074;52.478;13.534;2022-07-25T03:53:35;17.90;99.90
30053;DHT22;17074;52.478;13.534;2022-07-25T03:56:21;18.10;99.90
30053;DHT22;17074;52.478;13.534;2022-07-25T03:58:46;18.20;99.90
30053;DHT22;17074;52.478;13.534;2022-07-25T04:01:12;18.30;99.90
30053;DHT22;17074;52.478;13.534;2022-07-25T04:03:38;18.30;99.90
30053;DHT22;17074;52.478;13.534;2022-07-25T04:06:03;18.30;99.90
30053;DHT22;17074;52.478;13.534;2022-07-25T04:08:29;18.30;99.90
30053;DHT22;17074;52.478;13.534;2022-07-25T04:10:55;18.30;99.90
30053;DHT22;17074;52.478;13.534;2022-07-25T04:13:20;18.30;99.90
30053;DHT22;17074;52.478;13.534;2022-07-25T04:15:46;18.40;99.90
30053;DHT22;17074;52.478;13.534;2022-07-25T04:18:11;18.60;99.90
30053;DHT22;17074;52.478;13.534;2022-07-25T04:20:37;18.70;99.90
30053;DHT22;17074;52.478;13.534;2022-07-25T04:23:03;18.90;99.90
30053;DHT22;17074;52.478;13.534;2022-07-25T04:25:28;19.10;99.90
30053;DHT22;17074;52.478;13.534;2022-07-25T04:27:55;19.50;99.90
30053;DHT22;17074;52.478;13.534;2022-07-25T04:30:21;19.70;99.90
30053;DHT22;17074;52.478;13.534;2022-07-25T04:32:46;19.90;99.90
30053;DHT22;17074;52.478;13.534;2022-07-25T04:35:12;19.90;99.90
30053;DHT22;17074;52.478;13.534;2022-07-25T04:37:38;20.10;99.90
30053;DHT22;17074;52.478;13.534;2022-07-25T04:40:04;20.10;99.90
30053;DHT22;17074;52.478;13.534;2022-07-25T04:42:30;20.10;99.90
30053;DHT22;17074;52.478;13.534;2022-07-25T04:44:55;20.20;99.90
30053;DHT22;17074;52.478;13.534;2022-07-25T04:47:21;20.30;99.90
30053;DHT22;17074;52.478;13.534;2022-07-25T04:53:09;20.60;99.90
30053;DHT22;17074;52.478;13.534;2022-07-25T04:58:56;20.70;99.90
30053;DHT22;17074;52.478;13.534;2022-07-25T05:01:22;20.80;99.90
30053;DHT22;17074;52.478;13.534;2022-07-25T05:03:47;20.90;99.90
30053;DHT22;17074;52.478;13.534;2022-07-25T05:06:13;20.90;99.90
30053;DHT22;17074;52.478;13.534;2022-07-25T05:08:39;21.00;99.90
30053;DHT22;17074;52.478;13.534;2022-07-25T05:14:20;21.10;99.90
30053;DHT22;17074;52.478;13.534;2022-07-25T05:16:46;21.20;99.90
30053;DHT22;17074;52.478;13.534;2022-07-25T05:19:12;21.20;99.90
30053;DHT22;17074;52.478;13.534;2022-07-25T05:21:38;21.30;99.90
30053;DHT22;17074;52.478;13.534;2022-07-25T05:24:04;21.40;99.90
30053;DHT22;17074;52.478;13.534;2022-07-25T05:26:30;21.50;99.90
30053;DHT22;17074;52.478;13.534;2022-07-25T05:28:55;21.60;99.90
30053;DHT22;17074;52.478;13.534;2022-07-25T05:31:21;21.80;99.90
30053;DHT22;17074;52.478;13.534;2022-07-25T05:33:46;21.90;99.90
30053;DHT22;17074;52.478;13.534;2022-07-25T05:36:12;22.00;99.90
30053;DHT22;17074;52.478;13.534;2022-07-25T05:38:38;22.10;99.90
30053;DHT22;17074;52.478;13.534;2022-07-25T05:41:04;22.20;99.90
30053;DHT22;17074;52.478;13.534;2022-07-25T05:43:30;22.30;99.90
30053;DHT22;17074;52.478;13.534;2022-07-25T05:46:03;22.40;99.90
30053;DHT22;17074;52.478;13.534;2022-07-25T05:48:29;22.70;99.90
30053;DHT22;17074;52.478;13.534;2022-07-25T05:50:55;22.70;99.90
30053;DHT22;17074;52.478;13.534;2022-07-25T05:53:22;22.80;99.90
30053;DHT22;17074;52.478;13.534;2022-07-25T05:55:47;22.70;99.90
30053;DHT22;17074;52.478;13.534;2022-07-25T05:58:13;22.90;99.90
30053;DHT22;17074;52.478;13.534;2022-07-25T06:00:39;22.90;99.90
30053;DHT22;17074;52.478;13.534;2022-07-25T06:03:04;23.00;99.90
30053;DHT22;17074;52.478;13.534;2022-07-25T06:05:30;23.10;99.90
30053;DHT22;17074;52.478;13.534;2022-07-25T06:07:56;23.30;99.90
30053;DHT22;17074;52.478;13.534;2022-07-25T06:10:22;23.30;99.90
30053;DHT22;17074;52.478;13.534;2022-07-25T06:12:48;23.30;99.90
30053;DHT22;17074;52.478;13.534;2022-07-25T06:15:14;23.40;99.90
30053;DHT22;17074;52.478;13.534;2022-07-25T06:17:39;23.70;99.90
30053;DHT22;17074;52.478;13.534;2022-07-25T06:20:05;24.10;99.90
30053;DHT22;17074;52.478;13.534;2022-07-25T06:22:31;24.70;99.90
30053;DHT22;17074;52.478;13.534;2022-07-25T06:24:57;25.40;99.90
30053;DHT22;17074;52.478;13.534;2022-07-25T06:27:22;26.10;99.90
30053;DHT22;17074;52.478;13.534;2022-07-25T06:29:48;26.20;99.90
30053;DHT22;17074;52.478;13.534;2022-07-25T06:32:14;26.30;99.90
30053;DHT22;17074;52.478;13.534;2022-07-25T06:34:39;26.10;99.90
30053;DHT22;17074;52.478;13.534;2022-07-25T06:37:05;25.90;99.90
30053;DHT22;17074;52.478;13.534;2022-07-25T06:39:31;25.60;99.90
30053;DHT22;17074;52.478;13.534;2022-07-25T06:41:56;25.50;99.90
30053;DHT22;17074;52.478;13.534;2022-07-25T06:44:24;25.40;99.90
30053;DHT22;17074;52.478;13.534;2022-07-25T06:46:50;25.50;99.90
30053;DHT22;17074;52.478;13.534;2022-07-25T06:49:15;25.50;99.90
30053;DHT22;17074;52.478;13.534;2022-07-25T06:51:41;25.80;99.90
30053;DHT22;17074;52.478;13.534;2022-07-25T06:54:07;25.70;99.90
30053;DHT22;17074;52.478;13.534;2022-07-25T06:56:33;25.80;99.90
30053;DHT22;17074;52.478;13.534;2022-07-25T06:58:59;25.80;99.90
30053;DHT22;17074;52.478;13.534;2022-07-25T07:01:25;25.90;99.90
30053;DHT22;17074;52.478;13.534;2022-07-25T07:03:51;26.00;99.90
30053;DHT22;17074;52.478;13.534;2022-07-25T07:06:16;26.20;99.90
30053;DHT22;17074;52.478;13.534;2022-07-25T07:08:42;26.40;99.90
30053;DHT22;17074;52.478;13.534;2022-07-25T07:11:08;26.50;99.90
30053;DHT22;17074;52.478;13.534;2022-07-25T07:13:34;26.70;99.90
30053;DHT22;17074;52.478;13.534;2022-07-25T07:16:00;26.90;99.20
30053;DHT22;17074;52.478;13.534;2022-07-25T07:18:26;27.20;99.70
30053;DHT22;17074;52.478;13.534;2022-07-25T07:20:51;27.40;99.10
30053;DHT22;17074;52.478;13.534;2022-07-25T07:23:18;27.70;99.20
30053;DHT22;17074;52.478;13.534;2022-07-25T07:25:44;28.20;98.60
30053;DHT22;17074;52.478;13.534;2022-07-25T07:28:11;28.50;97.60
30053;DHT22;17074;52.478;13.534;2022-07-25T07:30:36;28.70;96.70
30053;DHT22;17074;52.478;13.534;2022-07-25T07:33:02;28.50;96.60
30053;DHT22;17074;52.478;13.534;2022-07-25T07:35:28;28.70;96.80
30053;DHT22;17074;52.478;13.534;2022-07-25T07:37:54;28.60;96.90
30053;DHT22;17074;52.478;13.534;2022-07-25T07:40:20;28.70;97.10
30053;DHT22;17074;52.478;13.534;2022-07-25T07:42:48;29.00;96.70
30053;DHT22;17074;52.478;13.534;2022-07-25T07:45:22;29.30;95.70
30053;DHT22;17074;52.478;13.534;2022-07-25T07:47:50;29.60;95.00
30053;DHT22;17074;52.478;13.534;2022-07-25T07:50:18;29.90;94.30
30053;DHT22;17074;52.478;13.534;2022-07-25T07:52:45;30.30;94.20
30053;DHT22;17074;52.478;13.534;2022-07-25T07:55:11;30.70;93.60
30053;DHT22;17074;52.478;13.534;2022-07-25T07:57:56;30.90;92.60
30053;DHT22;17074;52.478;13.534;2022-07-25T08:00:24;31.00;92.80
30053;DHT22;17074;52.478;13.534;2022-07-25T08:02:53;31.30;92.50
30053;DHT22;17074;52.478;13.534;2022-07-25T08:05:29;31.60;92.10
30053;DHT22;17074;52.478;13.534;2022-07-25T08:07:56;32.30;91.30
30053;DHT22;17074;52.478;13.534;2022-07-25T08:10:24;32.70;90.60
30053;DHT22;17074;52.478;13.534;2022-07-25T08:12:50;33.10;88.90
30053;DHT22;17074;52.478;13.534;2022-07-25T08:15:17;33.00;89.20
30053;DHT22;17074;52.478;13.534;2022-07-25T08:17:44;33.20;87.70
30053;DHT22;17074;52.478;13.534;2022-07-25T08:20:10;33.30;86.90
30053;DHT22;17074;52.478;13.534;2022-07-25T08:22:41;33.30;86.40
30053;DHT22;17074;52.478;13.534;2022-07-25T08:25:08;33.20;86.40
30053;DHT22;17074;52.478;13.534;2022-07-25T08:27:35;32.90;86.50
30053;DHT22;17074;52.478;13.534;2022-07-25T08:30:02;32.70;87.50
30053;DHT22;17074;52.478;13.534;2022-07-25T08:32:28;32.90;86.80
30053;DHT22;17074;52.478;13.534;2022-07-25T08:34:55;33.30;86.10
30053;DHT22;17074;52.478;13.534;2022-07-25T08:37:20;33.30;85.20
30053;DHT22;17074;52.478;13.534;2022-07-25T08:39:46;33.40;84.10
30053;DHT22;17074;52.478;13.534;2022-07-25T08:42:13;33.20;84.60
30053;DHT22;17074;52.478;13.534;2022-07-25T08:44:41;32.90;84.20
30053;DHT22;17074;52.478;13.534;2022-07-25T08:47:08;32.80;84.20
30053;DHT22;17074;52.478;13.534;2022-07-25T08:49:35;32.70;85.60
30053;DHT22;17074;52.478;13.534;2022-07-25T08:52:02;32.40;85.80
30053;DHT22;17074;52.478;13.534;2022-07-25T08:54:30;32.20;86.10
30053;DHT22;17074;52.478;13.534;2022-07-25T08:56:55;32.00;86.90
30053;DHT22;17074;52.478;13.534;2022-07-25T08:59:21;31.70;87.60
30053;DHT22;17074;52.478;13.534;2022-07-25T09:01:47;31.50;88.60
30053;DHT22;17074;52.478;13.534;2022-07-25T09:04:12;31.40;88.60
30053;DHT22;17074;52.478;13.534;2022-07-25T09:06:50;31.10;89.20
30053;DHT22;17074;52.478;13.534;2022-07-25T09:09:16;31.10;88.70
30053;DHT22;17074;52.478;13.534;2022-07-25T09:11:42;31.10;89.80
30053;DHT22;17074;52.478;13.534;2022-07-25T09:14:10;31.20;90.00
30053;DHT22;17074;52.478;13.534;2022-07-25T09:16:41;31.20;90.20
30053;DHT22;17074;52.478;13.534;2022-07-25T09:19:17;31.10;89.80
30053;DHT22;17074;52.478;13.534;2022-07-25T09:21:45;31.10;90.10
30053;DHT22;17074;52.478;13.534;2022-07-25T09:24:21;31.00;90.20
30053;DHT22;17074;52.478;13.534;2022-07-25T09:26:49;31.10;90.20
30053;DHT22;17074;52.478;13.534;2022-07-25T09:29:20;31.10;90.60
30053;DHT22;17074;52.478;13.534;2022-07-25T09:31:47;31.10;90.30
30053;DHT22;17074;52.478;13.534;2022-07-25T09:34:17;31.20;90.00
30053;DHT22;17074;52.478;13.534;2022-07-25T09:36:53;31.20;90.00
30053;DHT22;17074;52.478;13.534;2022-07-25T09:39:19;31.20;90.00
30053;DHT22;17074;52.478;13.534;2022-07-25T09:41:45;31.20;89.60
30053;DHT22;17074;52.478;13.534;2022-07-25T09:44:19;31.20;90.10
30053;DHT22;17074;52.478;13.534;2022-07-25T09:46:47;31.30;90.00
30053;DHT22;17074;52.478;13.534;2022-07-25T09:49:39;31.30;90.20
30053;DHT22;17074;52.478;13.534;2022-07-25T09:52:05;31.40;89.50
30053;DHT22;17074;52.478;13.534;2022-07-25T09:54:31;31.40;90.20
30053;DHT22;17074;52.478;13.534;2022-07-25T09:57:00;31.60;89.90
30053;DHT22;17074;52.478;13.534;2022-07-25T09:59:26;31.60;89.90
30053;DHT22;17074;52.478;13.534;2022-07-25T10:07:40;31.80;90.60
30053;DHT22;17074;52.478;13.534;2022-07-25T10:10:06;32.00;90.00
30053;DHT22;17074;52.478;13.534;2022-07-25T10:12:33;32.00;89.20
30053;DHT22;17074;52.478;13.534;2022-07-25T10:18:24;32.00;88.70
30053;DHT22;17074;52.478;13.534;2022-07-25T10:20:54;32.10;89.20
30053;DHT22;17074;52.478;13.534;2022-07-25T10:23:24;32.20;88.80
30053;DHT22;17074;52.478;13.534;2022-07-25T10:28:36;32.30;87.80
30053;DHT22;17074;52.478;13.534;2022-07-25T10:31:02;32.50;88.10
30053;DHT22;17074;52.478;13.534;2022-07-25T10:33:27;32.50;87.50
30053;DHT22;17074;52.478;13.534;2022-07-25T10:36:04;32.60;86.60
30053;DHT22;17074;52.478;13.534;2022-07-25T10:38:32;32.70;87.40
30053;DHT22;17074;52.478;13.534;2022-07-25T10:41:00;32.80;86.50
30053;DHT22;17074;52.478;13.534;2022-07-25T10:43:27;32.80;85.30
30053;DHT22;17074;52.478;13.534;2022-07-25T10:46:13;32.80;85.20
30053;DHT22;17074;52.478;13.534;2022-07-25T10:48:39;32.70;85.10
30053;DHT22;17074;52.478;13.534;2022-07-25T10:51:13;32.70;85.00
30053;DHT22;17074;52.478;13.534;2022-07-25T10:56:20;32.70;85.90
30053;DHT22;17074;52.478;13.534;2022-07-25T11:03:53;32.60;84.60
30053;DHT22;17074;52.478;13.534;2022-07-25T11:06:37;32.90;85.00
30053;DHT22;17074;52.478;13.534;2022-07-25T11:09:24;33.10;84.60
30053;DHT22;17074;52.478;13.534;2022-07-25T11:11:52;33.40;84.50
30053;DHT22;17074;52.478;13.534;2022-07-25T11:14:18;33.60;82.80
30053;DHT22;17074;52.478;13.534;2022-07-25T11:16:46;33.70;81.50
30053;DHT22;17074;52.478;13.534;2022-07-25T11:19:27;33.80;80.50
30053;DHT22;17074;52.478;13.534;2022-07-25T11:21:58;34.00;80.70
30053;DHT22;17074;52.478;13.534;2022-07-25T11:24:38;34.00;80.10
30053;DHT22;17074;52.478;13.534;2022-07-25T11:27:09;34.00;79.60
30053;DHT22;17074;52.478;13.534;2022-07-25T11:29:36;34.00;78.60
30053;DHT22;17074;52.478;13.534;2022-07-25T11:32:05;34.00;78.00
30053;DHT22;17074;52.478;13.534;2022-07-25T11:34:34;33.90;77.80
30053;DHT22;17074;52.478;13.534;2022-07-25T11:37:02;34.00;77.70
30053;DHT22;17074;52.478;13.534;2022-07-25T11:39:31;33.90;77.60
30053;DHT22;17074;52.478;13.534;2022-07-25T11:42:09;33.80;78.30
30053;DHT22;17074;52.478;13.534;2022-07-25T11:44:37;33.80;77.80
30053;DHT22;17074;52.478;13.534;2022-07-25T11:47:05;33.80;77.70
30053;DHT22;17074;52.478;13.534;2022-07-25T11:49:42;34.00;77.60
30053;DHT22;17074;52.478;13.534;2022-07-25T11:52:27;34.00;77.40
30053;DHT22;17074;52.478;13.534;2022-07-25T11:55:09;33.90;77.40
30053;DHT22;17074;52.478;13.534;2022-07-25T11:57:37;33.70;78.60
30053;DHT22;17074;52.478;13.534;2022-07-25T12:00:08;33.80;77.10
30053;DHT22;17074;52.478;13.534;2022-07-25T12:06:06;34.30;78.00
30053;DHT22;17074;52.478;13.534;2022-07-25T12:08:39;34.50;77.70
30053;DHT22;17074;52.478;13.534;2022-07-25T12:14:27;34.50;76.70
30053;DHT22;17074;52.478;13.534;2022-07-25T12:16:53;34.40;78.50
30053;DHT22;17074;52.478;13.534;2022-07-25T12:19:20;34.20;77.00
30053;DHT22;17074;52.478;13.534;2022-07-25T12:21:46;34.20;77.10
30053;DHT22;17074;52.478;13.534;2022-07-25T12:24:12;34.30;76.80
30053;DHT22;17074;52.478;13.534;2022-07-25T12:26:38;34.20;76.50
30053;DHT22;17074;52.478;13.534;2022-07-25T12:29:03;34.20;77.10
30053;DHT22;17074;52.478;13.534;2022-07-25T12:31:29;34.30;76.60
30053;DHT22;17074;52.478;13.534;2022-07-25T12:33:55;34.40;76.50
30053;DHT22;17074;52.478;13.534;2022-07-25T12:36:20;34.20;75.80
30053;DHT22;17074;52.478;13.534;2022-07-25T12:38:46;34.20;76.40
30053;DHT22;17074;52.478;13.534;2022-07-25T12:41:12;34.30;76.10
30053;DHT22;17074;52.478;13.534;2022-07-25T12:43:37;34.50;77.00
30053;DHT22;17074;52.478;13.534;2022-07-25T12:46:04;34.50;76.70
30053;DHT22;17074;52.478;13.534;2022-07-25T12:48:31;34.60;75.70
30053;DHT22;17074;52.478;13.534;2022-07-25T12:50:56;34.60;75.00
30053;DHT22;17074;52.478;13.534;2022-07-25T12:53:22;34.70;74.60
30053;DHT22;17074;52.478;13.534;2022-07-25T12:55:49;34.90;75.00
30053;DHT22;17074;52.478;13.534;2022-07-25T12:58:15;35.20;73.60
30053;DHT22;17074;52.478;13.534;2022-07-25T13:00:42;35.30;73.10
30053;DHT22;17074;52.478;13.534;2022-07-25T13:03:07;35.30;72.80
30053;DHT22;17074;52.478;13.534;2022-07-25T13:05:33;35.20;73.50
30053;DHT22;17074;52.478;13.534;2022-07-25T13:07:59;35.30;73.30
30053;DHT22;17074;52.478;13.534;2022-07-25T13:10:25;35.10;72.20
30053;DHT22;17074;52.478;13.534;2022-07-25T13:12:50;35.10;72.50
30053;DHT22;17074;52.478;13.534;2022-07-25T13:15:16;35.20;72.20
30053;DHT22;17074;52.478;13.534;2022-07-25T13:17:44;35.30;71.80
30053;DHT22;17074;52.478;13.534;2022-07-25T13:20:10;35.30;71.00
30053;DHT22;17074;52.478;13.534;2022-07-25T13:22:36;35.30;70.70
30053;DHT22;17074;52.478;13.534;2022-07-25T13:25:02;35.30;70.90
30053;DHT22;17074;52.478;13.534;2022-07-25T13:27:28;35.30;70.70
30053;DHT22;17074;52.478;13.534;2022-07-25T13:29:53;35.30;70.40
30053;DHT22;17074;52.478;13.534;2022-07-25T13:32:20;35.30;70.70
30053;DHT22;17074;52.478;13.534;2022-07-25T13:34:45;35.20;71.00
30053;DHT22;17074;52.478;13.534;2022-07-25T13:37:11;35.20;70.10
30053;DHT22;17074;52.478;13.534;2022-07-25T13:39:37;35.10;70.10
30053;DHT22;17074;52.478;13.534;2022-07-25T13:42:04;35.10;69.80
30053;DHT22;17074;52.478;13.534;2022-07-25T13:44:30;35.20;70.60
30053;DHT22;17074;52.478;13.534;2022-07-25T13:46:56;35.20;70.40
30053;DHT22;17074;52.478;13.534;2022-07-25T13:49:23;35.30;70.10
30053;DHT22;17074;52.478;13.534;2022-07-25T13:51:49;35.40;69.50
30053;DHT22;17074;52.478;13.534;2022-07-25T13:54:15;35.50;69.10
30053;DHT22;17074;52.478;13.534;2022-07-25T13:56:41;35.60;68.60
30053;DHT22;17074;52.478;13.534;2022-07-25T13:59:07;35.60;68.90
30053;DHT22;17074;52.478;13.534;2022-07-25T14:01:33;35.70;68.60
30053;DHT22;17074;52.478;13.534;2022-07-25T14:03:59;35.80;68.80
30053;DHT22;17074;52.478;13.534;2022-07-25T14:06:24;35.90;68.00
30053;DHT22;17074;52.478;13.534;2022-07-25T14:08:50;35.90;68.30
30053;DHT22;17074;52.478;13.534;2022-07-25T14:11:16;35.90;68.80
30053;DHT22;17074;52.478;13.534;2022-07-25T14:13:41;35.90;67.20
30053;DHT22;17074;52.478;13.534;2022-07-25T14:16:08;35.70;67.00
30053;DHT22;17074;52.478;13.534;2022-07-25T14:18:36;35.50;68.80
30053;DHT22;17074;52.478;13.534;2022-07-25T14:24:24;35.30;68.70
30053;DHT22;17074;52.478;13.534;2022-07-25T14:26:50;35.30;67.60
30053;DHT22;17074;52.478;13.534;2022-07-25T14:29:15;35.30;67.90
30053;DHT22;17074;52.478;13.534;2022-07-25T14:31:41;35.40;67.60
30053;DHT22;17074;52.478;13.534;2022-07-25T14:34:06;35.40;67.60
30053;DHT22;17074;52.478;13.534;2022-07-25T14:36:33;35.40;67.80
30053;DHT22;17074;52.478;13.534;2022-07-25T14:39:00;35.40;67.50
30053;DHT22;17074;52.478;13.534;2022-07-25T14:41:26;35.40;67.20
30053;DHT22;17074;52.478;13.534;2022-07-25T14:43:51;35.20;67.90
30053;DHT22;17074;52.478;13.534;2022-07-25T14:46:17;35.20;68.10
30053;DHT22;17074;52.478;13.534;2022-07-25T14:48:43;35.30;68.40
30053;DHT22;17074;52.478;13.534;2022-07-25T14:51:08;35.30;67.70
30053;DHT22;17074;52.478;13.534;2022-07-25T14:53:35;35.30;67.40
30053;DHT22;17074;52.478;13.534;2022-07-25T14:56:03;35.30;67.10
30053;DHT22;17074;52.478;13.534;2022-07-25T14:58:29;35.30;67.50
30053;DHT22;17074;52.478;13.534;2022-07-25T15:00:54;35.20;66.30
30053;DHT22;17074;52.478;13.534;2022-07-25T15:03:20;35.10;67.50
30053;DHT22;17074;52.478;13.534;2022-07-25T15:05:46;35.20;66.20
30053;DHT22;17074;52.478;13.534;2022-07-25T15:08:11;35.00;67.00
30053;DHT22;17074;52.478;13.534;2022-07-25T15:10:39;34.80;66.70
30053;DHT22;17074;52.478;13.534;2022-07-25T15:13:04;34.70;66.90
30053;DHT22;17074;52.478;13.534;2022-07-25T15:15:31;34.60;67.10
30053;DHT22;17074;52.478;13.534;2022-07-25T15:17:57;34.60;67.60
30053;DHT22;17074;52.478;13.534;2022-07-25T15:20:22;34.60;67.60
30053;DHT22;17074;52.478;13.534;2022-07-25T15:22:48;34.60;67.80
30053;DHT22;17074;52.478;13.534;2022-07-25T15:25:14;34.60;67.50
30053;DHT22;17074;52.478;13.534;2022-07-25T15:27:39;34.50;67.60
30053;DHT22;17074;52.478;13.534;2022-07-25T15:30:06;34.50;68.40
30053;DHT22;17074;52.478;13.534;2022-07-25T15:32:31;34.40;68.60
30053;DHT22;17074;52.478;13.534;2022-07-25T15:34:57;34.50;68.50
30053;DHT22;17074;52.478;13.534;2022-07-25T15:37:23;34.40;69.30
30053;DHT22;17074;52.478;13.534;2022-07-25T15:39:49;34.50;68.40
30053;DHT22;17074;52.478;13.534;2022-07-25T15:42:15;34.70;67.80
30053;DHT22;17074;52.478;13.534;2022-07-25T15:44:40;34.70;67.00
30053;DHT22;17074;52.478;13.534;2022-07-25T15:47:06;34.80;67.40
30053;DHT22;17074;52.478;13.534;2022-07-25T15:49:32;34.90;67.60
30053;DHT22;17074;52.478;13.534;2022-07-25T15:51:57;34.80;67.40
30053;DHT22;17074;52.478;13.534;2022-07-25T15:54:23;34.70;67.20
30053;DHT22;17074;52.478;13.534;2022-07-25T15:56:50;34.70;67.80
30053;DHT22;17074;52.478;13.534;2022-07-25T15:59:16;34.60;68.20